Time,TemperatureF,DewpointF,PressureIn,WindDirection,WindDirectionDegrees,WindSpeedMPH,WindSpeedGustMPH,Humidity,HourlyPrecipIn,Conditions,Clouds,dailyrainin,SoftwareType,DateUTC
2013-04-24 00:01:00,34.9,33.6,30.14,NNW,345,1.0,6.0,95,0.00,,,0.00,Wunderground v.1.15,2013-04-24 04:01:00,
2013-04-24 00:02:00,35.0,33.7,30.14,North,352,1.0,6.0,95,0.00,,,0.00,Wunderground v.1.15,2013-04-24 04:02:00,
2013-04-24 00:05:00,35.1,33.8,30.14,NW,322,1.0,6.0,95,0.00,,,0.00,Wunderground v.1.15,2013-04-24 04:05:00,
2013-04-24 00:09:00,35.3,34.0,30.14,NW,322,1.0,6.0,95,0.00,,,0.00,Wunderground v.1.15,2013-04-24 04:09:00,
2013-04-24 00:10:00,35.3,34.0,30.14,NW,321,1.0,1.0,95,0.00,,,0.00,Wunderground v.1.15,2013-04-24 04:10:00,
2013-04-24 00:15:00,35.2,33.9,30.14,NW,325,1.0,6.0,95,0.00,,,0.00,Wunderground v.1.15,2013-04-24 04:15:00,
2013-04-24 00:20:00,35.1,33.8,30.14,NW,321,0.0,6.0,95,0.00,,,0.00,Wunderground v.1.15,2013-04-24 04:20:00,
2013-04-24 00:25:00,35.0,33.7,30.13,North,8,0.0,6.0,95,0.00,,,0.00,Wunderground v.1.15,2013-04-24 04:25:00,
2013-04-24 00:30:00,35.3,34.3,30.13,North,354,1.0,6.0,96,0.00,,,0.00,Wunderground v.1.15,2013-04-24 04:30:00,
2013-04-24 00:35:00,35.4,34.4,30.13,NNE,13,1.0,6.0,96,0.00,,,0.00,Wunderground v.1.15,2013-04-24 04:35:00,
2013-04-24 00:40:00,35.4,34.1,30.13,NW,325,1.0,6.0,95,0.00,,,0.00,Wunderground v.1.15,2013-04-24 04:40:00,
2013-04-24 00:46:00,35.3,34.0,30.12,NE,48,1.0,6.0,95,0.00,,,0.00,Wunderground v.1.15,2013-04-24 04:46:00,
2013-04-24 00:51:00,35.1,33.8,30.13,NW,304,1.0,6.0,95,0.00,,,0.00,Wunderground v.1.15,2013-04-24 04:51:00,
2013-04-24 00:56:00,35.2,33.9,30.13,WNW,302,1.0,6.0,95,0.00,,,0.00,Wunderground v.1.15,2013-04-24 04:56:00,
2013-04-24 01:01:00,35.1,33.8,30.13,WNW,301,1.0,6.0,95,0.00,,,0.00,Wunderground v.1.15,2013-04-24 05:01:00,
2013-04-24 01:06:00,35.0,33.7,30.13,WNW,301,0.0,6.0,95,0.00,,,0.00,Wunderground v.1.15,2013-04-24 05:06:00,
2013-04-24 01:12:00,35.2,34.2,30.12,NE,44,0.0,6.0,96,0.00,,,0.00,Wunderground v.1.15,2013-04-24 05:12:00,
2013-04-24 01:17:00,35.1,34.1,30.12,ENE,63,0.0,6.0,96,0.00,,,0.00,Wunderground v.1.15,2013-04-24 05:17:00,
2013-04-24 01:22:00,34.8,33.5,30.11,ENE,62,0.0,6.0,95,0.00,,,0.00,Wunderground v.1.15,2013-04-24 05:22:00,
2013-04-24 01:27:00,34.6,33.3,30.11,ENE,63,0.0,6.0,95,0.00,,,0.00,Wunderground v.1.15,2013-04-24 05:27:00,
2013-04-24 01:32:00,34.4,33.1,30.11,ENE,59,0.0,6.0,95,0.00,,,0.00,Wunderground v.1.15,2013-04-24 05:32:00,
2013-04-24 01:38:00,34.2,33.2,30.11,ENE,72,1.0,6.0,96,0.00,,,0.00,Wunderground v.1.15,2013-04-24 05:38:00,
2013-04-24 01:43:00,34.0,33.0,30.11,ENE,72,0.0,6.0,96,0.00,,,0.00,Wunderground v.1.15,2013-04-24 05:43:00,
2013-04-24 01:48:00,33.9,32.9,30.11,NNW,336,0.0,6.0,96,0.00,,,0.00,Wunderground v.1.15,2013-04-24 05:48:00,
2013-04-24 01:53:00,33.5,32.2,30.11,NNW,335,0.0,6.0,95,0.00,,,0.00,Wunderground v.1.15,2013-04-24 05:53:00,
2013-04-24 01:58:00,33.3,32.3,30.11,NNW,335,0.0,6.0,96,0.00,,,0.00,Wunderground v.1.15,2013-04-24 05:58:00,
2013-04-24 02:04:00,33.3,32.3,30.11,NNW,335,0.0,6.0,96,0.00,,,0.00,Wunderground v.1.15,2013-04-24 06:04:00,
2013-04-24 02:09:00,33.3,32.3,30.10,NNW,335,0.0,6.0,96,0.00,,,0.00,Wunderground v.1.15,2013-04-24 06:09:00,
2013-04-24 02:14:00,33.2,32.2,30.10,NNW,336,0.0,6.0,96,0.00,,,0.00,Wunderground v.1.15,2013-04-24 06:14:00,
2013-04-24 02:19:00,33.3,32.3,30.10,East,101,0.0,6.0,96,0.00,,,0.00,Wunderground v.1.15,2013-04-24 06:19:00,
2013-04-24 02:24:00,33.0,32.0,30.09,ESE,102,0.0,6.0,96,0.00,,,0.00,Wunderground v.1.15,2013-04-24 06:24:00,
2013-04-24 02:30:00,32.8,31.8,30.09,East,101,0.0,6.0,96,0.00,,,0.00,Wunderground v.1.15,2013-04-24 06:30:00,
2013-04-24 02:35:00,32.4,31.4,30.09,ESE,102,0.0,6.0,96,0.00,,,0.00,Wunderground v.1.15,2013-04-24 06:35:00,
2013-04-24 02:40:00,32.0,31.0,30.09,ESE,102,0.0,6.0,96,0.00,,,0.00,Wunderground v.1.15,2013-04-24 06:40:00,
2013-04-24 02:45:00,31.6,30.6,30.09,ESE,102,0.0,6.0,96,0.00,,,0.00,Wunderground v.1.15,2013-04-24 06:45:00,
2013-04-24 02:50:00,31.5,30.5,30.08,East,101,0.0,6.0,96,0.00,,,0.00,Wunderground v.1.15,2013-04-24 06:50:00,
2013-04-24 02:56:00,31.5,30.5,30.08,ESE,102,0.0,6.0,96,0.00,,,0.00,Wunderground v.1.15,2013-04-24 06:56:00,
2013-04-24 03:01:00,31.4,30.4,30.08,East,101,0.0,6.0,96,0.00,,,0.00,Wunderground v.1.15,2013-04-24 07:01:00,
2013-04-24 03:06:00,31.3,30.3,30.08,East,101,0.0,6.0,96,0.00,,,0.00,Wunderground v.1.15,2013-04-24 07:06:00,
2013-04-24 03:11:00,31.4,30.4,30.08,East,101,0.0,6.0,96,0.00,,,0.00,Wunderground v.1.15,2013-04-24 07:11:00,
2013-04-24 03:16:00,31.6,30.8,30.08,East,101,0.0,6.0,97,0.00,,,0.00,Wunderground v.1.15,2013-04-24 07:16:00,
2013-04-24 03:21:00,31.5,30.7,30.08,East,101,0.0,6.0,97,0.00,,,0.00,Wunderground v.1.15,2013-04-24 07:21:00,
2013-04-24 03:26:00,31.7,30.9,30.08,East,101,0.0,6.0,97,0.00,,,0.00,Wunderground v.1.15,2013-04-24 07:26:00,
2013-04-24 03:31:00,31.7,30.9,30.08,ESE,102,0.0,6.0,97,0.00,,,0.00,Wunderground v.1.15,2013-04-24 07:31:00,
2013-04-24 03:36:00,31.4,30.6,30.08,East,101,0.0,6.0,97,0.00,,,0.00,Wunderground v.1.15,2013-04-24 07:36:00,
2013-04-24 03:42:00,31.0,30.2,30.08,ESE,102,0.0,6.0,97,0.00,,,0.00,Wunderground v.1.15,2013-04-24 07:42:00,
2013-04-24 03:47:00,31.2,30.4,30.08,ESE,102,0.0,6.0,97,0.00,,,0.00,Wunderground v.1.15,2013-04-24 07:47:00,
2013-04-24 03:52:00,31.4,30.6,30.08,ESE,102,0.0,6.0,97,0.00,,,0.00,Wunderground v.1.15,2013-04-24 07:52:00,
2013-04-24 03:57:00,31.5,30.7,30.08,East,101,0.0,6.0,97,0.00,,,0.00,Wunderground v.1.15,2013-04-24 07:57:00,
2013-04-24 04:02:00,31.3,30.5,30.08,ESE,102,0.0,6.0,97,0.00,,,0.00,Wunderground v.1.15,2013-04-24 08:02:00,
2013-04-24 04:07:00,31.0,30.2,30.08,ESE,102,0.0,6.0,97,0.00,,,0.00,Wunderground v.1.15,2013-04-24 08:07:00,
2013-04-24 04:12:00,30.9,30.1,30.07,East,101,0.0,6.0,97,0.00,,,0.00,Wunderground v.1.15,2013-04-24 08:12:00,
2013-04-24 04:18:00,30.8,30.0,30.07,East,101,0.0,6.0,97,0.00,,,0.00,Wunderground v.1.15,2013-04-24 08:18:00,
2013-04-24 04:23:00,30.6,29.9,30.07,East,101,0.0,6.0,97,0.00,,,0.00,Wunderground v.1.15,2013-04-24 08:23:00,
2013-04-24 04:28:00,30.2,29.5,30.07,ESE,102,0.0,6.0,97,0.00,,,0.00,Wunderground v.1.15,2013-04-24 08:28:00,
2013-04-24 04:33:00,29.8,28.8,30.07,East,101,0.0,6.0,96,0.00,,,0.00,Wunderground v.1.15,2013-04-24 08:33:00,
2013-04-24 04:38:00,29.7,29.0,30.07,ESE,102,0.0,6.0,97,0.00,,,0.00,Wunderground v.1.15,2013-04-24 08:38:00,
2013-04-24 04:44:00,29.8,29.1,30.07,ESE,102,0.0,6.0,97,0.00,,,0.00,Wunderground v.1.15,2013-04-24 08:44:00,
2013-04-24 04:49:00,29.8,29.1,30.08,East,101,0.0,6.0,97,0.00,,,0.00,Wunderground v.1.15,2013-04-24 08:49:00,
2013-04-24 04:54:00,29.7,29.0,30.08,East,101,0.0,6.0,97,0.00,,,0.00,Wunderground v.1.15,2013-04-24 08:54:00,
2013-04-24 04:59:00,29.5,28.8,30.08,East,101,0.0,6.0,97,0.00,,,0.00,Wunderground v.1.15,2013-04-24 08:59:00,
2013-04-24 05:04:00,29.5,28.8,30.09,ESE,102,0.0,6.0,97,0.00,,,0.00,Wunderground v.1.15,2013-04-24 09:04:00,
2013-04-24 05:10:00,29.4,28.7,30.08,East,96,0.0,6.0,97,0.00,,,0.00,Wunderground v.1.15,2013-04-24 09:10:00,
2013-04-24 05:15:00,29.5,28.8,30.08,East,96,0.0,6.0,97,0.00,,,0.00,Wunderground v.1.15,2013-04-24 09:15:00,
2013-04-24 05:20:00,29.4,28.7,30.08,East,96,0.0,6.0,97,0.00,,,0.00,Wunderground v.1.15,2013-04-24 09:20:00,
2013-04-24 05:25:00,29.1,28.4,30.08,North,6,0.0,6.0,97,0.00,,,0.00,Wunderground v.1.15,2013-04-24 09:25:00,
2013-04-24 05:30:00,29.0,28.3,30.08,NNW,336,1.0,6.0,97,0.00,,,0.00,Wunderground v.1.15,2013-04-24 09:30:00,
2013-04-24 05:36:00,28.9,28.2,30.08,NNW,336,1.0,6.0,97,0.00,,,0.00,Wunderground v.1.15,2013-04-24 09:36:00,
2013-04-24 05:41:00,29.1,28.4,30.08,ENE,72,1.0,6.0,97,0.00,,,0.00,Wunderground v.1.15,2013-04-24 09:41:00,
2013-04-24 05:46:00,29.2,28.5,30.08,ENE,72,0.0,6.0,97,0.00,,,0.00,Wunderground v.1.15,2013-04-24 09:46:00,
2013-04-24 05:51:00,29.1,28.4,30.09,ENE,72,0.0,6.0,97,0.00,,,0.00,Wunderground v.1.15,2013-04-24 09:51:00,
2013-04-24 05:56:00,29.1,28.4,30.09,ENE,72,0.0,6.0,97,0.00,,,0.00,Wunderground v.1.15,2013-04-24 09:56:00,
2013-04-24 06:02:00,29.6,28.9,30.08,East,91,1.0,6.0,97,0.00,,,0.00,Wunderground v.1.15,2013-04-24 10:02:00,
2013-04-24 06:07:00,30.1,29.4,30.08,East,84,1.0,6.0,97,0.00,,,0.00,Wunderground v.1.15,2013-04-24 10:07:00,
2013-04-24 06:12:00,30.4,29.7,30.08,East,85,1.0,1.0,97,0.00,,,0.00,Wunderground v.1.15,2013-04-24 10:12:00,
2013-04-24 06:17:00,30.4,29.7,30.08,NNW,332,0.0,1.0,97,0.00,,,0.00,Wunderground v.1.15,2013-04-24 10:17:00,
2013-04-24 06:22:00,30.4,29.7,30.08,NNW,332,0.0,1.0,97,0.00,,,0.00,Wunderground v.1.15,2013-04-24 10:22:00,
2013-04-24 06:28:00,30.6,29.9,30.08,NNE,18,0.0,1.0,97,0.00,,,0.00,Wunderground v.1.15,2013-04-24 10:28:00,
2013-04-24 06:33:00,30.9,30.1,30.07,NNE,18,0.0,1.0,97,0.00,,,0.00,Wunderground v.1.15,2013-04-24 10:33:00,
2013-04-24 06:38:00,31.3,30.5,30.07,NNE,18,0.0,1.0,97,0.00,,,0.00,Wunderground v.1.15,2013-04-24 10:38:00,
2013-04-24 06:43:00,31.5,30.7,30.07,NNE,18,0.0,0.0,97,0.00,,,0.00,Wunderground v.1.15,2013-04-24 10:43:00,
2013-04-24 06:48:00,31.5,30.7,30.07,NNE,23,0.0,2.0,97,0.00,,,0.00,Wunderground v.1.15,2013-04-24 10:48:00,
2013-04-24 06:53:00,31.6,30.8,30.07,NNE,23,1.0,1.0,97,0.00,,,0.00,Wunderground v.1.15,2013-04-24 10:53:00,
2013-04-24 06:58:00,32.0,31.2,30.07,South,176,0.0,1.0,97,0.00,,,0.00,Wunderground v.1.15,2013-04-24 10:58:00,
2013-04-24 07:03:00,32.3,31.5,30.06,South,176,0.0,2.0,97,0.00,,,0.00,Wunderground v.1.15,2013-04-24 11:03:00,
2013-04-24 07:09:00,32.5,32.0,30.06,WSW,257,0.0,2.0,98,0.00,,,0.00,Wunderground v.1.15,2013-04-24 11:09:00,
2013-04-24 07:14:00,32.3,31.5,30.06,WSW,257,1.0,2.0,97,0.00,,,0.00,Wunderground v.1.15,2013-04-24 11:14:00,
2013-04-24 07:19:00,32.7,31.9,30.06,WSW,257,0.0,2.0,97,0.00,,,0.00,Wunderground v.1.15,2013-04-24 11:19:00,
2013-04-24 07:24:00,33.3,32.8,30.06,WSW,257,0.0,2.0,98,0.00,,,0.00,Wunderground v.1.15,2013-04-24 11:24:00,
2013-04-24 07:29:00,34.1,33.6,30.06,WSW,257,0.0,2.0,98,0.00,,,0.00,Wunderground v.1.15,2013-04-24 11:29:00,
2013-04-24 07:34:00,34.5,34.0,30.07,WSW,249,0.0,2.0,98,0.00,,,0.00,Wunderground v.1.15,2013-04-24 11:34:00,
2013-04-24 07:39:00,34.9,34.4,30.07,WSW,249,0.0,2.0,98,0.00,,,0.00,Wunderground v.1.15,2013-04-24 11:39:00,
2013-04-24 07:44:00,35.7,35.2,30.06,SSW,207,1.0,2.0,98,0.00,,,0.00,Wunderground v.1.15,2013-04-24 11:44:00,
2013-04-24 07:50:00,36.3,35.8,30.06,SSW,207,1.0,1.0,98,0.00,,,0.00,Wunderground v.1.15,2013-04-24 11:50:00,
2013-04-24 07:55:00,36.9,36.4,30.06,SSW,208,0.0,2.0,98,0.00,,,0.00,Wunderground v.1.15,2013-04-24 11:55:00,
2013-04-24 08:00:00,37.6,37.1,30.06,SSW,207,0.0,2.0,98,0.00,,,0.00,Wunderground v.1.15,2013-04-24 12:00:00,
2013-04-24 08:05:00,38.5,38.0,30.05,SSW,208,0.0,2.0,98,0.00,,,0.00,Wunderground v.1.15,2013-04-24 12:05:00,
2013-04-24 08:10:00,39.7,39.2,30.05,West,267,0.0,2.0,98,0.00,,,0.00,Wunderground v.1.15,2013-04-24 12:10:00,
2013-04-24 08:16:00,40.5,40.0,30.05,SW,215,0.0,2.0,98,0.00,,,0.00,Wunderground v.1.15,2013-04-24 12:16:00,
2013-04-24 08:21:00,41.4,40.9,30.05,ESE,122,1.0,2.0,98,0.00,,,0.00,Wunderground v.1.15,2013-04-24 12:21:00,
2013-04-24 08:26:00,41.6,41.1,30.05,West,270,1.0,2.0,98,0.00,,,0.00,Wunderground v.1.15,2013-04-24 12:26:00,
2013-04-24 08:31:00,42.4,41.9,30.05,SSW,211,0.0,2.0,98,0.00,,,0.00,Wunderground v.1.15,2013-04-24 12:31:00,
2013-04-24 08:36:00,43.0,42.5,30.04,SSW,210,0.0,2.0,98,0.00,,,0.00,Wunderground v.1.15,2013-04-24 12:36:00,
2013-04-24 08:42:00,43.6,42.8,30.04,SSW,197,1.0,2.0,97,0.00,,,0.00,Wunderground v.1.15,2013-04-24 12:42:00,
2013-04-24 08:47:00,44.3,43.2,30.04,SSE,152,1.0,3.0,96,0.00,,,0.00,Wunderground v.1.15,2013-04-24 12:47:00,
2013-04-24 08:52:00,45.1,43.8,30.03,West,268,1.0,2.0,95,0.00,,,0.00,Wunderground v.1.15,2013-04-24 12:52:00,
2013-04-24 08:57:00,45.9,42.5,30.03,SSE,148,1.0,3.0,88,0.00,,,0.00,Wunderground v.1.15,2013-04-24 12:57:00,
2013-04-24 09:02:00,46.9,42.6,30.03,WSW,257,1.0,3.0,85,0.00,,,0.00,Wunderground v.1.15,2013-04-24 13:02:00,
2013-04-24 09:08:00,47.7,42.8,30.03,SE,125,1.0,3.0,83,0.00,,,0.00,Wunderground v.1.15,2013-04-24 13:08:00,
2013-04-24 09:13:00,48.6,42.4,30.03,SE,129,1.0,2.0,79,0.00,,,0.00,Wunderground v.1.15,2013-04-24 13:13:00,
2013-04-24 09:18:00,49.5,42.9,30.02,West,269,1.0,3.0,78,0.00,,,0.00,Wunderground v.1.15,2013-04-24 13:18:00,
2013-04-24 09:23:00,50.0,42.4,30.02,NW,304,2.0,3.0,75,0.00,,,0.00,Wunderground v.1.15,2013-04-24 13:23:00,
2013-04-24 09:28:00,50.5,42.2,30.01,SSW,193,2.0,3.0,73,0.00,,,0.00,Wunderground v.1.15,2013-04-24 13:28:00,
2013-04-24 09:34:00,51.5,42.0,30.01,ESE,122,1.0,3.0,70,0.00,,,0.00,Wunderground v.1.15,2013-04-24 13:34:00,
2013-04-24 09:39:00,52.2,42.7,30.01,SW,225,2.0,3.0,70,0.00,,,0.00,Wunderground v.1.15,2013-04-24 13:39:00,
2013-04-24 09:44:00,53.0,43.1,30.01,SSE,155,1.0,5.0,69,0.00,,,0.00,Wunderground v.1.15,2013-04-24 13:44:00,
2013-04-24 09:49:00,53.7,42.6,30.01,WSW,257,2.0,6.0,66,0.00,,,0.00,Wunderground v.1.15,2013-04-24 13:49:00,
2013-04-24 09:54:00,54.0,42.5,30.01,WSW,257,3.0,6.0,65,0.00,,,0.00,Wunderground v.1.15,2013-04-24 13:54:00,
2013-04-24 10:00:00,54.3,42.4,30.00,SW,233,3.0,3.0,64,0.00,,,0.00,Wunderground v.1.15,2013-04-24 14:00:00,
2013-04-24 10:05:00,54.7,42.8,30.00,WSW,256,3.0,3.0,64,0.00,,,0.00,Wunderground v.1.15,2013-04-24 14:05:00,
2013-04-24 10:10:00,55.2,42.8,30.00,South,191,2.0,2.0,63,0.00,,,0.00,Wunderground v.1.15,2013-04-24 14:10:00,
2013-04-24 10:15:00,55.6,42.4,29.99,NW,307,2.0,4.0,61,0.00,,,0.00,Wunderground v.1.15,2013-04-24 14:15:00,
2013-04-24 10:20:00,56.3,43.9,29.99,WNW,302,3.0,5.0,63,0.00,,,0.00,Wunderground v.1.15,2013-04-24 14:20:00,
2013-04-24 10:26:00,56.8,43.1,29.99,WNW,282,3.0,5.0,60,0.00,,,0.00,Wunderground v.1.15,2013-04-24 14:26:00,
2013-04-24 10:31:00,57.0,43.7,29.98,SW,224,2.0,3.0,61,0.00,,,0.00,Wunderground v.1.15,2013-04-24 14:31:00,
2013-04-24 10:36:00,57.5,44.1,29.98,SSW,201,2.0,3.0,61,0.00,,,0.00,Wunderground v.1.15,2013-04-24 14:36:00,
2013-04-24 10:41:00,58.4,43.2,29.98,SW,235,3.0,5.0,57,0.00,,,0.00,Wunderground v.1.15,2013-04-24 14:41:00,
2013-04-24 10:46:00,59.2,45.3,29.98,WSW,243,3.0,5.0,60,0.00,,,0.00,Wunderground v.1.15,2013-04-24 14:46:00,
2013-04-24 10:51:00,59.6,44.3,29.98,South,174,3.0,4.0,57,0.00,,,0.00,Wunderground v.1.15,2013-04-24 14:51:00,
2013-04-24 10:56:00,59.6,44.3,29.98,WSW,250,3.0,5.0,57,0.00,,,0.00,Wunderground v.1.15,2013-04-24 14:56:00,
2013-04-24 11:01:00,60.4,45.1,29.98,WSW,250,3.0,3.0,57,0.00,,,0.00,Wunderground v.1.15,2013-04-24 15:01:00,
2013-04-24 11:09:00,61.2,45.8,29.97,South,177,3.0,4.0,57,0.00,,,0.00,Wunderground v.1.15,2013-04-24 15:09:00,
2013-04-24 11:15:00,61.4,44.6,29.96,WSW,246,2.0,6.0,54,0.00,,,0.00,Wunderground v.1.15,2013-04-24 15:15:00,
2013-04-24 11:20:00,61.0,44.7,29.96,SW,222,3.0,3.0,55,0.00,,,0.00,Wunderground v.1.15,2013-04-24 15:20:00,
2013-04-24 11:25:00,61.5,45.2,29.96,SW,231,2.0,4.0,55,0.00,,,0.00,Wunderground v.1.15,2013-04-24 15:25:00,
2013-04-24 11:30:00,61.9,44.6,29.96,NW,315,2.0,3.0,53,0.00,,,0.00,Wunderground v.1.15,2013-04-24 15:30:00,
2013-04-24 11:35:00,61.8,44.0,29.96,WSW,252,3.0,4.0,52,0.00,,,0.00,Wunderground v.1.15,2013-04-24 15:35:00,
2013-04-24 11:41:00,62.2,44.3,29.95,SW,231,2.0,5.0,52,0.00,,,0.00,Wunderground v.1.15,2013-04-24 15:41:00,
2013-04-24 11:46:00,62.8,45.4,29.95,SSW,210,2.0,5.0,53,0.00,,,0.00,Wunderground v.1.15,2013-04-24 15:46:00,
2013-04-24 11:51:00,63.9,45.4,29.95,SW,223,3.0,3.0,51,0.00,,,0.00,Wunderground v.1.15,2013-04-24 15:51:00,
2013-04-24 11:56:00,64.9,45.8,29.94,SSW,203,3.0,5.0,50,0.00,,,0.00,Wunderground v.1.15,2013-04-24 15:56:00,
2013-04-24 12:01:00,65.1,44.9,29.94,WSW,253,4.0,4.0,48,0.00,,,0.00,Wunderground v.1.15,2013-04-24 16:01:00,
2013-04-24 12:06:00,64.5,44.9,29.94,WSW,257,4.0,6.0,49,0.00,,,0.00,Wunderground v.1.15,2013-04-24 16:06:00,
2013-04-24 12:12:00,63.9,45.4,29.93,West,262,4.0,6.0,51,0.00,,,0.00,Wunderground v.1.15,2013-04-24 16:12:00,
2013-04-24 12:17:00,64.4,45.9,29.93,NW,321,3.0,6.0,51,0.00,,,0.00,Wunderground v.1.15,2013-04-24 16:17:00,
2013-04-24 12:22:00,64.2,45.2,29.92,WSW,237,3.0,3.0,50,0.00,,,0.00,Wunderground v.1.15,2013-04-24 16:22:00,
2013-04-24 12:27:00,64.2,45.2,29.91,SSE,156,3.0,8.0,50,0.00,,,0.00,Wunderground v.1.15,2013-04-24 16:27:00,
2013-04-24 12:32:00,64.2,45.2,29.90,South,190,4.0,4.0,50,0.00,,,0.00,Wunderground v.1.15,2013-04-24 16:32:00,
2013-04-24 12:37:00,64.2,45.2,29.89,SSW,203,3.0,4.0,50,0.00,,,0.00,Wunderground v.1.15,2013-04-24 16:37:00,
2013-04-24 12:42:00,64.4,44.8,29.89,SSE,162,3.0,3.0,49,0.00,,,0.00,Wunderground v.1.15,2013-04-24 16:42:00,
2013-04-24 12:47:00,65.2,46.1,29.89,SSW,197,3.0,6.0,50,0.00,,,0.00,Wunderground v.1.15,2013-04-24 16:47:00,
2013-04-24 12:52:00,66.0,45.7,29.88,WSW,249,3.0,5.0,48,0.00,,,0.00,Wunderground v.1.15,2013-04-24 16:52:00,
2013-04-24 12:57:00,66.9,46.0,29.88,WSW,256,3.0,5.0,47,0.00,,,0.00,Wunderground v.1.15,2013-04-24 16:57:00,
2013-04-24 13:03:00,67.7,46.7,29.88,WNW,288,3.0,6.0,47,0.00,,,0.00,Wunderground v.1.15,2013-04-24 17:03:00,
2013-04-24 13:08:00,67.1,45.6,29.88,West,280,4.0,6.0,46,0.00,,,0.00,Wunderground v.1.15,2013-04-24 17:08:00,
2013-04-24 13:13:00,66.6,45.2,29.88,West,259,4.0,6.0,46,0.00,,,0.00,Wunderground v.1.15,2013-04-24 17:13:00,
2013-04-24 13:18:00,66.2,44.8,29.88,SW,214,4.0,6.0,46,0.00,,,0.00,Wunderground v.1.15,2013-04-24 17:18:00,
2013-04-24 13:23:00,65.9,45.1,29.88,South,190,4.0,6.0,47,0.00,,,0.00,Wunderground v.1.15,2013-04-24 17:23:00,
2013-04-24 13:29:00,65.8,45.0,29.88,SW,221,4.0,6.0,47,0.00,,,0.00,Wunderground v.1.15,2013-04-24 17:29:00,
2013-04-24 13:34:00,66.2,46.5,29.87,NW,324,4.0,10.0,49,0.00,,,0.00,Wunderground v.1.15,2013-04-24 17:34:00,
2013-04-24 13:39:00,66.9,45.4,29.87,WNW,283,4.0,10.0,46,0.00,,,0.00,Wunderground v.1.15,2013-04-24 17:39:00,
2013-04-24 13:44:00,66.6,45.2,29.87,SW,231,4.0,7.0,46,0.00,,,0.00,Wunderground v.1.15,2013-04-24 17:44:00,
2013-04-24 13:49:00,66.2,45.4,29.87,NW,306,5.0,7.0,47,0.00,,,0.00,Wunderground v.1.15,2013-04-24 17:49:00,
2013-04-24 13:55:00,66.3,46.0,29.87,SSW,208,4.0,6.0,48,0.00,,,0.00,Wunderground v.1.15,2013-04-24 17:55:00,
2013-04-24 14:00:00,66.6,46.3,29.88,SW,224,3.0,3.0,48,0.00,,,0.00,Wunderground v.1.15,2013-04-24 18:00:00,
2013-04-24 14:05:00,66.3,46.0,29.87,WSW,245,4.0,6.0,48,0.00,,,0.00,Wunderground v.1.15,2013-04-24 18:05:00,
2013-04-24 14:10:00,66.1,47.4,29.87,SE,145,4.0,4.0,51,0.00,,,0.00,Wunderground v.1.15,2013-04-24 18:10:00,
2013-04-24 14:15:00,66.3,46.0,29.86,WNW,291,4.0,10.0,48,0.00,,,0.00,Wunderground v.1.15,2013-04-24 18:15:00,
2013-04-24 14:21:00,66.9,47.1,29.86,West,276,4.0,6.0,49,0.00,,,0.00,Wunderground v.1.15,2013-04-24 18:21:00,
2013-04-24 14:26:00,67.9,46.9,29.85,SE,144,4.0,7.0,47,0.00,,,0.00,Wunderground v.1.15,2013-04-24 18:26:00,
2013-04-24 14:31:00,68.7,47.6,29.85,SSE,166,4.0,5.0,47,0.00,,,0.00,Wunderground v.1.15,2013-04-24 18:31:00,
2013-04-24 14:36:00,69.6,47.9,29.84,SW,217,4.0,5.0,46,0.00,,,0.00,Wunderground v.1.15,2013-04-24 18:36:00,
2013-04-24 14:41:00,69.0,46.8,29.84,South,181,3.0,5.0,45,0.00,,,0.00,Wunderground v.1.15,2013-04-24 18:41:00,
2013-04-24 14:47:00,69.3,47.0,29.84,SW,217,4.0,13.0,45,0.00,,,0.00,Wunderground v.1.15,2013-04-24 18:47:00,
2013-04-24 14:52:00,69.1,46.9,29.83,South,191,5.0,8.0,45,0.00,,,0.00,Wunderground v.1.15,2013-04-24 18:52:00,
2013-04-24 14:57:00,69.1,46.9,29.83,SSE,167,5.0,8.0,45,0.00,,,0.00,Wunderground v.1.15,2013-04-24 18:57:00,
2013-04-24 15:02:00,69.6,48.5,29.82,WSW,245,5.0,5.0,47,0.00,,,0.00,Wunderground v.1.15,2013-04-24 19:02:00,
2013-04-24 15:07:00,69.5,47.8,29.82,WNW,288,5.0,11.0,46,0.00,,,0.00,Wunderground v.1.15,2013-04-24 19:07:00,
2013-04-24 15:13:00,70.0,47.1,29.82,SW,232,5.0,8.0,44,0.00,,,0.00,Wunderground v.1.15,2013-04-24 19:13:00,
2013-04-24 15:18:00,70.4,48.6,29.82,SE,131,4.0,8.0,46,0.00,,,0.00,Wunderground v.1.15,2013-04-24 19:18:00,
2013-04-24 15:23:00,70.5,47.5,29.82,WSW,246,5.0,8.0,44,0.00,,,0.00,Wunderground v.1.15,2013-04-24 19:23:00,
2013-04-24 15:28:00,70.9,47.9,29.81,SSW,211,4.0,8.0,44,0.00,,,0.00,Wunderground v.1.15,2013-04-24 19:28:00,
2013-04-24 15:33:00,70.7,47.1,29.81,SSW,201,4.0,5.0,43,0.00,,,0.00,Wunderground v.1.15,2013-04-24 19:33:00,
2013-04-24 15:38:00,70.6,47.6,29.81,WSW,240,4.0,13.0,44,0.00,,,0.00,Wunderground v.1.15,2013-04-24 19:38:00,
2013-04-24 15:43:00,70.2,47.9,29.80,West,270,4.0,10.0,45,0.00,,,0.00,Wunderground v.1.15,2013-04-24 19:43:00,
2013-04-24 15:48:00,70.6,48.2,29.80,South,181,5.0,10.0,45,0.00,,,0.00,Wunderground v.1.15,2013-04-24 19:48:00,
2013-04-24 15:54:00,70.3,47.3,29.80,WSW,248,5.0,8.0,44,0.00,,,0.00,Wunderground v.1.15,2013-04-24 19:54:00,
2013-04-24 15:59:00,70.1,48.4,29.81,SSW,200,6.0,11.0,46,0.00,,,0.00,Wunderground v.1.15,2013-04-24 19:59:00,
2013-04-24 16:04:00,70.6,47.6,29.80,SSW,207,5.0,6.0,44,0.00,,,0.00,Wunderground v.1.15,2013-04-24 20:04:00,
2013-04-24 16:09:00,70.2,47.9,29.80,SSW,204,4.0,6.0,45,0.00,,,0.00,Wunderground v.1.15,2013-04-24 20:09:00,
2013-04-24 16:14:00,70.2,48.4,29.80,SW,236,4.0,5.0,46,0.00,,,0.00,Wunderground v.1.15,2013-04-24 20:14:00,
2013-04-24 16:19:00,69.8,48.1,29.80,SW,222,4.0,5.0,46,0.00,,,0.00,Wunderground v.1.15,2013-04-24 20:19:00,
2013-04-24 16:24:00,69.2,48.1,29.80,West,271,5.0,9.0,47,0.00,,,0.00,Wunderground v.1.15,2013-04-24 20:24:00,
2013-04-24 16:29:00,69.1,47.4,29.80,SSE,162,4.0,9.0,46,0.00,,,0.00,Wunderground v.1.15,2013-04-24 20:29:00,
2013-04-24 16:35:00,69.2,48.7,29.79,SSW,201,5.0,8.0,48,0.00,,,0.00,Wunderground v.1.15,2013-04-24 20:35:00,
2013-04-24 16:40:00,69.5,47.8,29.80,SW,231,5.0,7.0,46,0.00,,,0.00,Wunderground v.1.15,2013-04-24 20:40:00,
2013-04-24 16:45:00,69.2,47.5,29.80,WSW,250,4.0,11.0,46,0.00,,,0.00,Wunderground v.1.15,2013-04-24 20:45:00,
2013-04-24 16:50:00,69.0,48.5,29.79,SW,221,5.0,5.0,48,0.00,,,0.00,Wunderground v.1.15,2013-04-24 20:50:00,
2013-04-24 16:55:00,68.9,47.8,29.79,South,172,4.0,7.0,47,0.00,,,0.00,Wunderground v.1.15,2013-04-24 20:55:00,
2013-04-24 17:01:00,68.6,48.1,29.78,South,181,4.0,4.0,48,0.00,,,0.00,Wunderground v.1.15,2013-04-24 21:01:00,
2013-04-24 17:06:00,68.4,47.4,29.78,SW,222,3.0,4.0,47,0.00,,,0.00,Wunderground v.1.15,2013-04-24 21:06:00,
2013-04-24 17:11:00,68.3,48.4,29.78,SW,233,3.0,6.0,49,0.00,,,0.00,Wunderground v.1.15,2013-04-24 21:11:00,
2013-04-24 17:16:00,68.2,47.8,29.78,West,271,4.0,10.0,48,0.00,,,0.00,Wunderground v.1.15,2013-04-24 21:16:00,
2013-04-24 17:21:00,68.1,47.7,29.77,SSE,158,4.0,4.0,48,0.00,,,0.00,Wunderground v.1.15,2013-04-24 21:21:00,
2013-04-24 17:27:00,68.1,47.7,29.77,SE,136,4.0,8.0,48,0.00,,,0.00,Wunderground v.1.15,2013-04-24 21:27:00,
2013-04-24 17:32:00,68.2,47.8,29.78,West,260,4.0,4.0,48,0.00,,,0.00,Wunderground v.1.15,2013-04-24 21:32:00,
2013-04-24 17:37:00,68.4,47.9,29.77,SW,217,3.0,4.0,48,0.00,,,0.00,Wunderground v.1.15,2013-04-24 21:37:00,
2013-04-24 17:42:00,68.5,48.0,29.76,WNW,289,3.0,3.0,48,0.00,,,0.00,Wunderground v.1.15,2013-04-24 21:42:00,
2013-04-24 17:47:00,68.6,48.7,29.76,WNW,287,2.0,4.0,49,0.00,,,0.00,Wunderground v.1.15,2013-04-24 21:47:00,
2013-04-24 17:53:00,68.6,47.6,29.76,ESE,115,4.0,6.0,47,0.00,,,0.00,Wunderground v.1.15,2013-04-24 21:53:00,
2013-04-24 17:58:00,68.6,47.6,29.76,South,191,5.0,6.0,47,0.00,,,0.00,Wunderground v.1.15,2013-04-24 21:58:00,
2013-04-24 18:03:00,68.4,47.9,29.75,SSE,165,4.0,5.0,48,0.00,,,0.00,Wunderground v.1.15,2013-04-24 22:03:00,
2013-04-24 18:08:00,68.2,48.3,29.75,SSE,155,4.0,5.0,49,0.00,,,0.00,Wunderground v.1.15,2013-04-24 22:08:00,
2013-04-24 18:13:00,68.0,48.1,29.75,NNE,33,4.0,4.0,49,0.00,,,0.00,Wunderground v.1.15,2013-04-24 22:13:00,
2013-04-24 18:19:00,67.7,47.8,29.75,SSW,194,3.0,4.0,49,0.00,,,0.00,Wunderground v.1.15,2013-04-24 22:19:00,
2013-04-24 18:24:00,67.6,48.3,29.75,South,184,3.0,4.0,50,0.00,,,0.00,Wunderground v.1.15,2013-04-24 22:24:00,
2013-04-24 18:29:00,67.4,48.1,29.75,WSW,245,2.0,4.0,50,0.00,,,0.00,Wunderground v.1.15,2013-04-24 22:29:00,
2013-04-24 18:34:00,67.1,47.8,29.75,SW,233,3.0,6.0,50,0.00,,,0.00,Wunderground v.1.15,2013-04-24 22:34:00,
2013-04-24 18:39:00,66.7,47.5,29.74,SW,231,3.0,6.0,50,0.00,,,0.00,Wunderground v.1.15,2013-04-24 22:39:00,
2013-04-24 18:45:00,66.2,47.5,29.74,South,184,3.0,5.0,51,0.00,,,0.00,Wunderground v.1.15,2013-04-24 22:45:00,
2013-04-24 18:50:00,66.0,47.9,29.74,SE,139,3.0,3.0,52,0.00,,,0.00,Wunderground v.1.15,2013-04-24 22:50:00,
2013-04-24 18:55:00,65.8,47.7,29.73,WSW,240,3.0,6.0,52,0.00,,,0.00,Wunderground v.1.15,2013-04-24 22:55:00,
2013-04-24 19:00:00,65.5,47.4,29.74,SE,141,3.0,3.0,52,0.00,,,0.00,Wunderground v.1.15,2013-04-24 23:00:00,
2013-04-24 19:05:00,65.3,47.2,29.74,SSE,162,4.0,4.0,52,0.00,,,0.00,Wunderground v.1.15,2013-04-24 23:05:00,
2013-04-24 19:10:00,65.1,47.0,29.74,SW,219,3.0,3.0,52,0.00,,,0.00,Wunderground v.1.15,2013-04-24 23:10:00,
2013-04-24 19:16:00,64.8,46.8,29.75,SSE,150,3.0,6.0,52,0.00,,,0.00,Wunderground v.1.15,2013-04-24 23:16:00,
2013-04-24 19:21:00,64.6,47.1,29.76,SSE,167,4.0,5.0,53,0.00,,,0.00,Wunderground v.1.15,2013-04-24 23:21:00,
2013-04-24 19:26:00,64.6,47.1,29.77,East,87,4.0,5.0,53,0.00,,,0.00,Wunderground v.1.15,2013-04-24 23:26:00,
2013-04-24 19:31:00,64.6,46.6,29.77,South,186,5.0,7.0,52,0.00,,,0.00,Wunderground v.1.15,2013-04-24 23:31:00,
2013-04-24 19:36:00,64.4,46.9,29.77,SSE,166,5.0,12.0,53,0.00,,,0.00,Wunderground v.1.15,2013-04-24 23:36:00,
2013-04-24 19:41:00,64.0,47.0,29.77,SW,228,5.0,6.0,54,0.00,,,0.00,Wunderground v.1.15,2013-04-24 23:41:00,
2013-04-24 19:46:00,63.8,46.8,29.78,SSE,150,4.0,6.0,54,0.00,,,0.00,Wunderground v.1.15,2013-04-24 23:46:00,
2013-04-24 19:51:00,63.7,47.2,29.77,West,264,5.0,5.0,55,0.00,,,0.00,Wunderground v.1.15,2013-04-24 23:51:00,
2013-04-24 19:56:00,63.5,47.0,29.77,SW,215,6.0,7.0,55,0.00,,,0.00,Wunderground v.1.15,2013-04-24 23:56:00,
2013-04-24 20:01:00,63.3,47.8,29.77,ESE,116,5.0,9.0,57,0.00,,,0.00,Wunderground v.1.15,2013-04-25 00:01:00,
2013-04-24 20:07:00,62.6,48.5,29.77,South,174,6.0,9.0,60,0.00,,,0.00,Wunderground v.1.15,2013-04-25 00:07:00,
2013-04-24 20:12:00,62.2,48.6,29.78,NW,307,5.0,5.0,61,0.00,,,0.00,Wunderground v.1.15,2013-04-25 00:12:00,
2013-04-24 20:17:00,62.0,48.4,29.78,West,280,3.0,6.0,61,0.00,,,0.00,Wunderground v.1.15,2013-04-25 00:17:00,
2013-04-24 20:22:00,61.8,49.1,29.78,SW,225,3.0,3.0,63,0.00,,,0.00,Wunderground v.1.15,2013-04-25 00:22:00,
2013-04-24 20:27:00,61.5,49.6,29.79,WSW,256,5.0,6.0,65,0.00,,,0.00,Wunderground v.1.15,2013-04-25 00:27:00,
2013-04-24 20:33:00,61.1,49.7,29.79,SE,144,5.0,8.0,66,0.00,,,0.00,Wunderground v.1.15,2013-04-25 00:33:00,
2013-04-24 20:38:00,60.7,49.7,29.79,SSW,209,4.0,8.0,67,0.00,,,0.00,Wunderground v.1.15,2013-04-25 00:38:00,
2013-04-24 20:43:00,60.4,49.8,29.78,WSW,250,4.0,6.0,68,0.00,,,0.00,Wunderground v.1.15,2013-04-25 00:43:00,
2013-04-24 20:48:00,60.1,50.3,29.77,WSW,256,5.0,6.0,70,0.00,,,0.00,Wunderground v.1.15,2013-04-25 00:48:00,
2013-04-24 20:53:00,59.5,50.5,29.77,SSW,195,4.0,6.0,72,0.00,,,0.00,Wunderground v.1.15,2013-04-25 00:53:00,
2013-04-24 20:59:00,59.1,50.5,29.76,South,188,3.0,6.0,73,0.00,,,0.00,Wunderground v.1.15,2013-04-25 00:59:00,
2013-04-24 21:04:00,58.8,50.5,29.75,SE,134,3.0,4.0,74,0.00,,,0.00,Wunderground v.1.15,2013-04-25 01:04:00,
2013-04-24 21:09:00,58.7,50.8,29.76,West,273,3.0,5.0,75,0.00,,,0.00,Wunderground v.1.15,2013-04-25 01:09:00,
2013-04-24 21:14:00,58.8,50.9,29.78,WSW,246,3.0,5.0,75,0.00,,,0.00,Wunderground v.1.15,2013-04-25 01:14:00,
2013-04-24 21:19:00,58.9,51.0,29.77,WNW,300,3.0,6.0,75,0.00,,,0.00,Wunderground v.1.15,2013-04-25 01:19:00,
2013-04-24 21:25:00,58.7,51.5,29.77,South,176,4.0,9.0,77,0.00,,,0.00,Wunderground v.1.15,2013-04-25 01:25:00,
2013-04-24 21:30:00,58.4,51.6,29.77,SSW,210,4.0,4.0,78,0.00,,,0.00,Wunderground v.1.15,2013-04-25 01:30:00,
2013-04-24 21:35:00,58.3,51.5,29.77,SE,146,4.0,9.0,78,0.00,,,0.00,Wunderground v.1.15,2013-04-25 01:35:00,
2013-04-24 21:40:00,58.3,51.5,29.77,SW,227,4.0,7.0,78,0.00,,,0.00,Wunderground v.1.15,2013-04-25 01:40:00,
2013-04-24 21:45:00,58.3,51.5,29.77,SSW,198,4.0,7.0,78,0.00,,,0.00,Wunderground v.1.15,2013-04-25 01:45:00,
2013-04-24 21:51:00,58.2,51.4,29.77,SSW,197,4.0,6.0,78,0.00,,,0.00,Wunderground v.1.15,2013-04-25 01:51:00,
2013-04-24 21:56:00,58.2,51.7,29.77,SE,145,4.0,8.0,79,0.00,,,0.00,Wunderground v.1.15,2013-04-25 01:56:00,
2013-04-24 22:01:00,58.2,51.7,29.76,SSW,198,4.0,5.0,79,0.00,,,0.00,Wunderground v.1.15,2013-04-25 02:01:00,
2013-04-24 22:06:00,58.2,52.1,29.76,SSE,158,4.0,5.0,80,0.00,,,0.00,Wunderground v.1.15,2013-04-25 02:06:00,
2013-04-24 22:11:00,58.1,52.0,29.76,WNW,285,4.0,7.0,80,0.00,,,0.00,Wunderground v.1.15,2013-04-25 02:11:00,
2013-04-24 22:17:00,58.1,52.0,29.76,WSW,240,3.0,12.0,80,0.00,,,0.00,Wunderground v.1.15,2013-04-25 02:17:00,
2013-04-24 22:22:00,58.3,51.8,29.76,SW,225,4.0,4.0,79,0.00,,,0.00,Wunderground v.1.15,2013-04-25 02:22:00,
2013-04-24 22:27:00,58.6,52.1,29.76,SW,217,5.0,9.0,79,0.00,,,0.00,Wunderground v.1.15,2013-04-25 02:27:00,
2013-04-24 22:32:00,58.7,52.2,29.76,West,280,5.0,6.0,79,0.00,,,0.00,Wunderground v.1.15,2013-04-25 02:32:00,
2013-04-24 22:37:00,58.7,52.2,29.76,SW,225,5.0,6.0,79,0.00,,,0.00,Wunderground v.1.15,2013-04-25 02:37:00,
2013-04-24 22:43:00,58.7,52.2,29.76,SW,226,5.0,7.0,79,0.00,,,0.00,Wunderground v.1.15,2013-04-25 02:43:00,
2013-04-24 22:48:00,58.6,52.4,29.76,WSW,255,5.0,10.0,80,0.00,,,0.00,Wunderground v.1.15,2013-04-25 02:48:00,
2013-04-24 22:53:00,58.7,52.5,29.76,SSW,198,5.0,11.0,80,0.00,,,0.00,Wunderground v.1.15,2013-04-25 02:53:00,
2013-04-24 22:58:00,58.6,52.4,29.75,SW,235,5.0,11.0,80,0.00,,,0.00,Wunderground v.1.15,2013-04-25 02:58:00,
2013-04-24 23:03:00,58.5,52.4,29.75,West,260,4.0,4.0,80,0.00,,,0.00,Wunderground v.1.15,2013-04-25 03:03:00,
2013-04-24 23:08:00,58.5,52.4,29.75,South,184,5.0,9.0,80,0.00,,,0.00,Wunderground v.1.15,2013-04-25 03:08:00,
2013-04-24 23:13:00,58.6,52.4,29.76,West,276,6.0,11.0,80,0.00,,,0.00,Wunderground v.1.15,2013-04-25 03:13:00,
2013-04-24 23:18:00,58.6,52.4,29.75,West,271,6.0,11.0,80,0.00,,,0.00,Wunderground v.1.15,2013-04-25 03:18:00,
2013-04-24 23:23:00,58.6,52.4,29.78,WNW,303,5.0,8.0,80,0.00,,,0.00,Wunderground v.1.15,2013-04-25 03:23:00,
2013-04-24 23:28:00,55.7,49.6,29.80,SW,229,7.0,13.0,80,0.00,,,0.01,Wunderground v.1.15,2013-04-25 03:28:00,
2013-04-24 23:33:00,52.3,47.9,29.81,NNW,334,10.0,15.0,85,0.23,,,0.04,Wunderground v.1.15,2013-04-25 03:33:00,
2013-04-24 23:39:00,50.5,47.4,29.82,West,272,8.0,15.0,89,0.29,,,0.06,Wunderground v.1.15,2013-04-25 03:39:00,
2013-04-24 23:44:00,49.9,46.8,29.82,West,265,7.0,8.0,89,0.08,,,0.06,Wunderground v.1.15,2013-04-25 03:44:00,
2013-04-24 23:49:00,49.6,47.1,29.83,West,280,7.0,8.0,91,0.08,,,0.07,Wunderground v.1.15,2013-04-25 03:49:00,
2013-04-24 23:54:00,49.1,46.9,29.84,WSW,246,6.0,7.0,92,0.10,,,0.08,Wunderground v.1.15,2013-04-25 03:54:00,
2013-04-24 23:59:00,48.5,45.7,29.85,WNW,296,6.0,7.0,90,0.07,,,0.08,Wunderground v.1.15,2013-04-25 03:59:00,